createdAt,value
2018-06-16T00:00:52.436Z,19.80
2018-06-16T00:01:52.419Z,20.50
2018-06-16T00:02:52.422Z,21.50
2018-06-16T00:03:52.399Z,20.30
2018-06-16T00:04:55.212Z,21.40
2018-06-16T00:06:42.864Z,23.00
2018-06-16T00:07:41.844Z,22.20
2018-06-16T00:08:41.831Z,22.40
2018-06-16T00:09:41.817Z,22.80
2018-06-16T00:10:41.797Z,23.30
2018-06-16T00:11:41.786Z,22.70
2018-06-16T00:12:41.772Z,22.50
2018-06-16T00:13:41.786Z,22.80
2018-06-16T00:14:41.756Z,23.20
2018-06-16T00:15:41.743Z,22.90
2018-06-16T00:16:41.722Z,21.40
2018-06-16T00:17:41.709Z,21.60
2018-06-16T00:18:41.697Z,21.50
2018-06-16T00:19:41.684Z,22.40
2018-06-16T00:20:41.669Z,21.40
2018-06-16T00:21:41.805Z,23.00
2018-06-16T00:22:41.645Z,22.70
2018-06-16T00:23:41.636Z,21.40
2018-06-16T00:24:41.618Z,23.00
2018-06-16T00:25:41.609Z,22.80
2018-06-16T00:26:41.591Z,22.50
2018-06-16T00:27:41.579Z,22.40
2018-06-16T00:28:41.563Z,22.60
2018-06-16T00:29:41.551Z,22.30
2018-06-16T00:30:41.548Z,23.00
2018-06-16T00:31:41.523Z,22.60
2018-06-16T00:32:41.512Z,22.30
2018-06-16T00:33:41.496Z,22.70
2018-06-16T00:34:41.485Z,23.90
2018-06-16T00:35:41.474Z,24.50
2018-06-16T00:36:41.460Z,23.90
2018-06-16T00:37:41.447Z,24.00
2018-06-16T00:38:41.432Z,23.40
2018-06-16T00:39:41.426Z,23.00
2018-06-16T00:40:41.408Z,22.60
2018-06-16T00:41:41.400Z,24.50
2018-06-16T00:42:41.392Z,24.90
2018-06-16T00:43:41.373Z,23.90
2018-06-16T00:44:41.358Z,25.00
2018-06-16T00:45:41.347Z,24.90
2018-06-16T00:46:41.325Z,24.30
2018-06-16T00:47:41.328Z,24.10
2018-06-16T00:48:41.305Z,24.30
2018-06-16T00:49:41.288Z,24.10
2018-06-16T00:50:41.274Z,23.60
2018-06-16T00:51:41.262Z,23.60
2018-06-16T00:52:41.247Z,23.90
2018-06-16T00:53:41.234Z,23.20
2018-06-16T00:54:41.221Z,24.30
2018-06-16T00:55:41.211Z,24.00
2018-06-16T00:56:41.197Z,24.40
2018-06-16T00:57:41.184Z,23.30
2018-06-16T00:58:41.169Z,24.00
2018-06-16T00:59:41.160Z,25.50
2018-06-16T01:00:41.144Z,24.30
2018-06-16T01:01:41.144Z,25.00
2018-06-16T01:02:41.127Z,24.60
2018-06-16T01:03:41.106Z,24.60
2018-06-16T01:04:41.091Z,25.30
2018-06-16T01:05:41.084Z,24.20
2018-06-16T01:06:41.063Z,23.70
2018-06-16T01:07:41.051Z,24.20
2018-06-16T01:08:41.036Z,23.30
2018-06-16T01:09:41.025Z,24.70
2018-06-16T01:10:41.011Z,24.50
2018-06-16T01:11:40.999Z,23.90
2018-06-16T01:12:40.985Z,24.20
2018-06-16T01:13:40.970Z,24.60
2018-06-16T01:14:40.958Z,24.40
2018-06-16T01:15:40.953Z,24.60
2018-06-16T01:16:40.945Z,25.00
2018-06-16T01:17:40.917Z,23.00
2018-06-16T01:18:40.906Z,23.40
2018-06-16T01:19:40.892Z,23.20
2018-06-16T01:20:40.882Z,23.40
2018-06-16T01:21:40.865Z,23.60
2018-06-16T01:22:40.852Z,24.80
2018-06-16T01:23:40.840Z,23.50
2018-06-16T01:24:40.826Z,24.00
2018-06-16T01:25:40.811Z,24.40
2018-06-16T01:26:40.800Z,23.90
2018-06-16T01:27:40.788Z,23.80
2018-06-16T01:28:40.777Z,24.10
2018-06-16T01:29:40.758Z,23.50
2018-06-16T01:30:40.746Z,23.80
2018-06-16T01:31:40.740Z,23.00
2018-06-16T01:32:40.720Z,24.80
2018-06-16T01:33:40.708Z,25.00
2018-06-16T01:34:40.696Z,24.40
2018-06-16T01:35:40.687Z,24.50
2018-06-16T01:36:40.668Z,23.10
2018-06-16T01:37:40.654Z,23.50
2018-06-16T01:38:40.643Z,24.10
2018-06-16T01:39:40.629Z,23.60
2018-06-16T01:40:40.624Z,24.10
2018-06-16T01:41:40.605Z,23.90
2018-06-16T01:42:40.588Z,24.40
2018-06-16T01:43:40.576Z,23.90
2018-06-16T01:44:40.564Z,23.30
2018-06-16T01:45:40.548Z,23.90
2018-06-16T01:46:40.586Z,22.90
2018-06-16T01:47:40.522Z,23.70
2018-06-16T01:48:40.510Z,25.10
2018-06-16T01:49:40.496Z,24.50
2018-06-16T01:50:40.487Z,25.00
2018-06-16T01:51:40.468Z,25.30
2018-06-16T01:52:40.455Z,24.80
2018-06-16T01:53:40.442Z,24.70
2018-06-16T01:54:40.429Z,25.80
2018-06-16T01:55:40.417Z,25.50
2018-06-16T01:56:40.404Z,25.40
2018-06-16T01:57:40.400Z,24.70
2018-06-16T01:58:40.375Z,26.40
2018-06-16T01:59:40.366Z,25.80
2018-06-16T02:00:40.349Z,24.80
2018-06-16T02:01:40.336Z,25.80
2018-06-16T02:02:40.323Z,25.40
2018-06-16T02:03:40.309Z,24.80
2018-06-16T02:04:40.296Z,25.00
2018-06-16T02:05:40.281Z,26.40
2018-06-16T02:06:40.269Z,25.40
2018-06-16T02:07:40.255Z,25.50
2018-06-16T02:08:40.240Z,24.70
2018-06-16T02:09:40.228Z,24.00
2018-06-16T02:10:40.214Z,23.40
2018-06-16T02:11:40.202Z,25.60
2018-06-16T02:12:40.195Z,24.80
2018-06-16T02:13:40.176Z,25.70
2018-06-16T02:14:40.166Z,24.60
2018-06-16T02:15:40.148Z,25.10
2018-06-16T02:16:40.149Z,24.80
2018-06-16T02:17:40.121Z,24.20
2018-06-16T02:18:40.108Z,23.00
2018-06-16T02:19:40.094Z,24.00
2018-06-16T02:20:40.082Z,24.30
2018-06-16T02:21:40.066Z,24.70
2018-06-16T02:22:40.054Z,24.30
2018-06-16T02:23:40.040Z,24.40
2018-06-16T02:24:40.027Z,23.90
2018-06-16T02:25:40.012Z,24.80
2018-06-16T02:26:40.153Z,23.60
2018-06-16T02:27:39.986Z,24.20
2018-06-16T02:28:39.972Z,23.50
2018-06-16T02:29:39.959Z,24.40
2018-06-16T02:30:39.944Z,25.70
2018-06-16T02:31:39.932Z,26.10
2018-06-16T02:32:39.918Z,24.30
2018-06-16T02:33:39.918Z,24.70
2018-06-16T02:34:39.899Z,24.30
2018-06-16T02:35:39.878Z,24.80
2018-06-16T02:36:39.881Z,24.70
2018-06-16T02:37:39.852Z,23.60
2018-06-16T02:38:39.837Z,23.60
2018-06-16T02:39:39.822Z,22.70
2018-06-16T02:40:39.809Z,23.70
2018-06-16T02:41:39.793Z,23.50
2018-06-16T02:42:39.780Z,23.80
2018-06-16T02:43:39.768Z,23.80
2018-06-16T02:44:39.756Z,24.10
2018-06-16T02:45:39.740Z,24.20
2018-06-16T02:46:39.726Z,23.60
2018-06-16T02:47:39.713Z,23.70
2018-06-16T02:48:39.699Z,23.40
2018-06-16T02:49:39.683Z,23.80
2018-06-16T02:50:39.678Z,25.30
2018-06-16T02:51:39.735Z,24.30
2018-06-16T02:52:39.643Z,23.30
2018-06-16T02:53:39.629Z,23.80
2018-06-16T02:54:39.616Z,23.90
2018-06-16T02:55:39.602Z,23.60
2018-06-16T02:56:39.591Z,23.60
2018-06-16T02:57:39.577Z,24.10
2018-06-16T02:58:39.562Z,23.40
2018-06-16T02:59:39.549Z,24.40
2018-06-16T03:00:39.536Z,24.10
2018-06-16T03:01:39.572Z,23.00
2018-06-16T03:02:39.506Z,24.10
2018-06-16T03:03:39.506Z,22.80
2018-06-16T03:04:39.479Z,22.60
2018-06-16T03:05:39.473Z,22.50
2018-06-16T03:06:39.452Z,23.00
2018-06-16T03:07:39.440Z,22.10
2018-06-16T03:08:39.426Z,22.00
2018-06-16T03:09:39.419Z,21.40
2018-06-16T03:10:39.396Z,22.10
2018-06-16T03:11:39.385Z,22.90
2018-06-16T03:12:39.372Z,22.00
2018-06-16T03:13:39.363Z,22.70
2018-06-16T03:14:39.341Z,21.60
2018-06-16T03:15:39.338Z,22.40
2018-06-16T03:16:39.320Z,22.40
2018-06-16T03:17:39.306Z,22.30
2018-06-16T03:18:39.288Z,21.20
2018-06-16T03:19:40.488Z,22.20
2018-06-16T03:20:39.258Z,21.90
2018-06-16T03:21:39.244Z,20.60
2018-06-16T03:22:39.231Z,21.20
2018-06-16T03:23:39.216Z,20.40
2018-06-16T03:24:39.208Z,20.80
2018-06-16T03:25:39.191Z,21.30
2018-06-16T03:26:39.191Z,21.80
2018-06-16T03:27:39.164Z,20.70
2018-06-16T03:28:39.157Z,21.40
2018-06-16T03:29:39.133Z,20.90
2018-06-16T03:30:39.120Z,21.90
2018-06-16T03:31:39.106Z,21.80
2018-06-16T03:32:39.093Z,21.50
2018-06-16T03:33:39.077Z,21.90
2018-06-16T03:34:39.063Z,21.20
2018-06-16T03:35:39.052Z,21.80
2018-06-16T03:36:39.038Z,22.10
2018-06-16T03:37:39.022Z,21.20
2018-06-16T03:38:39.009Z,21.50
2018-06-16T03:39:38.994Z,20.40
2018-06-16T03:40:38.982Z,20.30
2018-06-16T03:41:38.965Z,21.00
2018-06-16T03:42:38.951Z,20.30
2018-06-16T03:43:38.939Z,20.30
2018-06-16T03:44:39.075Z,20.50
2018-06-16T03:45:38.911Z,21.10
2018-06-16T03:46:38.896Z,21.20
2018-06-16T03:47:38.881Z,20.10
2018-06-16T03:48:38.868Z,20.00
2018-06-16T03:49:38.853Z,20.10
2018-06-16T03:50:38.842Z,20.00
2018-06-16T03:51:38.825Z,19.60
2018-06-16T03:52:38.811Z,19.90
2018-06-16T03:53:38.797Z,20.70
2018-06-16T03:54:38.792Z,19.90
2018-06-16T03:55:38.772Z,19.50
2018-06-16T03:56:38.757Z,19.30
2018-06-16T03:57:38.741Z,19.60
2018-06-16T03:58:38.731Z,19.60
2018-06-16T03:59:38.714Z,19.90
2018-06-16T04:00:38.702Z,20.60
2018-06-16T04:01:38.688Z,19.20
2018-06-16T04:02:38.671Z,20.10
2018-06-16T04:03:38.667Z,18.40
2018-06-16T04:04:38.644Z,19.40
2018-06-16T04:05:38.630Z,19.20
2018-06-16T04:06:38.617Z,19.60
2018-06-16T04:07:38.607Z,19.30
2018-06-16T04:08:38.590Z,19.80
2018-06-16T04:09:38.574Z,18.20
2018-06-16T04:10:38.560Z,19.40
2018-06-16T04:11:38.547Z,19.70
2018-06-16T04:12:38.537Z,19.30
2018-06-16T04:13:38.520Z,18.10
2018-06-16T04:14:38.505Z,18.50
2018-06-16T04:15:38.491Z,19.20
2018-06-16T04:16:38.484Z,19.00
2018-06-16T04:17:38.463Z,18.60
2018-06-16T04:18:38.449Z,19.00
2018-06-16T04:19:38.438Z,18.40
2018-06-16T04:20:38.421Z,19.30
2018-06-16T04:21:38.407Z,18.00
2018-06-16T04:22:38.394Z,19.00
2018-06-16T04:23:38.381Z,18.30
2018-06-16T04:24:38.372Z,17.90
2018-06-16T04:25:38.370Z,19.10
2018-06-16T04:26:38.342Z,18.30
2018-06-16T04:27:38.328Z,17.40
2018-06-16T04:28:38.313Z,17.30
2018-06-16T04:29:38.303Z,18.30
2018-06-16T04:30:38.286Z,18.10
2018-06-16T04:31:38.280Z,18.30
2018-06-16T04:32:38.259Z,18.30
2018-06-16T04:33:38.246Z,18.20
2018-06-16T04:34:38.234Z,18.40
2018-06-16T04:35:38.218Z,18.70
2018-06-16T04:36:38.203Z,18.40
2018-06-16T04:37:38.191Z,18.60
2018-06-16T04:38:38.177Z,19.10
2018-06-16T04:39:38.163Z,18.90
2018-06-16T04:40:38.149Z,18.90
2018-06-16T04:41:38.136Z,18.60
2018-06-16T04:42:38.123Z,18.80
2018-06-16T04:43:38.110Z,17.10
2018-06-16T04:44:38.096Z,18.40
2018-06-16T04:45:38.177Z,16.90
2018-06-16T04:46:38.077Z,17.70
2018-06-16T04:47:38.056Z,16.90
2018-06-16T04:48:38.041Z,18.50
2018-06-16T04:49:38.032Z,17.50
2018-06-16T04:50:38.018Z,16.80
2018-06-16T04:51:38.001Z,16.90
2018-06-16T04:52:37.992Z,15.60
2018-06-16T04:53:37.974Z,16.80
2018-06-16T04:54:37.964Z,16.50
2018-06-16T04:55:37.947Z,16.70
2018-06-16T04:56:37.935Z,16.40
2018-06-16T04:57:37.921Z,18.40
2018-06-16T04:58:37.907Z,17.40
2018-06-16T04:59:37.907Z,15.60
2018-06-16T05:00:37.882Z,15.40
2018-06-16T05:01:37.866Z,15.70
2018-06-16T05:02:37.859Z,15.20
2018-06-16T05:03:37.842Z,16.00
2018-06-16T05:04:37.828Z,14.80
2018-06-16T05:05:37.817Z,14.80
2018-06-16T05:06:37.807Z,15.10
2018-06-16T05:07:37.789Z,16.00
2018-06-16T05:08:37.802Z,15.40
2018-06-16T05:09:37.763Z,15.00
2018-06-16T05:10:37.757Z,14.90
2018-06-16T05:11:37.739Z,15.20
2018-06-16T05:12:37.728Z,14.60
2018-06-16T05:13:37.713Z,15.20
2018-06-16T05:14:37.800Z,14.80
2018-06-16T05:15:37.686Z,15.10
2018-06-16T05:16:37.673Z,15.40
2018-06-16T05:17:37.667Z,14.50
2018-06-16T05:18:37.648Z,13.90
2018-06-16T05:19:37.635Z,14.70
2018-06-16T05:20:37.624Z,15.50
2018-06-16T05:21:37.615Z,14.70
2018-06-16T05:22:37.596Z,14.10
2018-06-16T05:23:37.585Z,13.90
2018-06-16T05:24:37.572Z,14.10
2018-06-16T05:25:37.592Z,14.40
2018-06-16T05:26:37.545Z,14.20
2018-06-16T05:27:37.536Z,15.00
2018-06-16T05:28:37.520Z,14.40
2018-06-16T05:29:37.509Z,14.10
2018-06-16T05:30:37.496Z,14.30
2018-06-16T05:31:37.484Z,13.90
2018-06-16T05:32:37.471Z,14.00
2018-06-16T05:33:37.458Z,14.40
2018-06-16T05:34:37.447Z,13.30
2018-06-16T05:35:37.435Z,13.10
2018-06-16T05:36:37.423Z,13.20
2018-06-16T05:37:37.410Z,13.70
2018-06-16T05:38:37.400Z,13.50
2018-06-16T05:39:37.386Z,13.20
2018-06-16T05:40:37.373Z,12.50
2018-06-16T05:41:37.362Z,12.50
2018-06-16T05:42:37.361Z,13.70
2018-06-16T05:43:37.339Z,12.50
2018-06-16T05:44:37.327Z,12.40
2018-06-16T05:45:37.315Z,13.20
2018-06-16T05:46:37.302Z,12.30
2018-06-16T05:47:37.293Z,13.10
2018-06-16T05:48:37.279Z,12.30
2018-06-16T05:49:37.265Z,12.60
2018-06-16T05:50:37.258Z,13.60
2018-06-16T05:51:37.244Z,13.10
2018-06-16T05:52:37.232Z,12.70
2018-06-16T05:53:37.220Z,12.90
2018-06-16T05:54:37.216Z,12.70
2018-06-16T05:55:37.199Z,12.80
2018-06-16T05:56:37.184Z,13.40
2018-06-16T05:57:37.182Z,12.90
2018-06-16T05:58:37.162Z,12.60
2018-06-16T05:59:37.149Z,13.00
2018-06-16T06:00:37.175Z,12.80
2018-06-16T06:01:37.136Z,13.00
2018-06-16T06:02:37.115Z,13.20
2018-06-16T06:03:37.106Z,12.10
2018-06-16T06:04:37.100Z,12.90
2018-06-16T06:05:37.085Z,12.60
2018-06-16T06:06:37.069Z,12.20
2018-06-16T06:07:37.060Z,13.00
2018-06-16T06:08:37.051Z,13.60
2018-06-16T06:09:37.043Z,12.50
2018-06-16T06:10:37.226Z,12.50
2018-06-16T06:11:37.023Z,12.90
2018-06-16T06:12:37.016Z,12.30
2018-06-16T06:13:36.993Z,12.30
2018-06-16T06:14:36.983Z,12.60
2018-06-16T06:15:36.973Z,12.70
2018-06-16T06:16:36.963Z,12.20
2018-06-16T06:17:36.951Z,12.20
2018-06-16T06:18:36.940Z,11.80
2018-06-16T06:19:36.930Z,12.60
2018-06-16T06:20:36.919Z,12.60
2018-06-16T06:21:36.913Z,12.20
2018-06-16T06:22:36.899Z,11.90
2018-06-16T06:23:36.896Z,12.30
2018-06-16T06:24:36.878Z,12.90
2018-06-16T06:25:36.864Z,11.20
2018-06-16T06:26:36.855Z,11.90
2018-06-16T06:27:36.845Z,12.70
2018-06-16T06:28:36.835Z,11.60
2018-06-16T06:29:36.828Z,12.30
2018-06-16T06:30:36.810Z,11.40
2018-06-16T06:31:36.807Z,11.30
2018-06-16T06:32:36.791Z,11.60
2018-06-16T06:33:36.781Z,11.40
2018-06-16T06:34:36.770Z,11.60
2018-06-16T06:35:36.761Z,11.10
2018-06-16T06:36:36.761Z,11.10
2018-06-16T06:37:36.744Z,12.00
2018-06-16T06:38:36.730Z,11.00
2018-06-16T06:39:36.725Z,10.90
2018-06-16T06:40:36.712Z,10.70
2018-06-16T06:41:36.711Z,11.80
2018-06-16T06:42:36.691Z,10.70
2018-06-16T06:43:36.684Z,11.30
2018-06-16T06:44:36.678Z,11.30
2018-06-16T06:45:36.666Z,11.60
2018-06-16T06:46:36.666Z,10.40
2018-06-16T06:47:36.650Z,10.50
2018-06-16T06:48:36.641Z,9.80
2018-06-16T06:49:36.632Z,9.80
2018-06-16T06:50:36.633Z,9.40
2018-06-16T06:51:36.659Z,10.10
2018-06-16T06:52:36.611Z,9.40
2018-06-16T06:53:36.599Z,9.60
2018-06-16T06:54:36.593Z,9.60
2018-06-16T06:55:36.594Z,9.10
2018-06-16T06:56:36.578Z,9.10
2018-06-16T06:57:36.567Z,9.40
2018-06-16T06:58:36.561Z,8.90
2018-06-16T06:59:36.555Z,9.00
2018-06-16T07:00:36.546Z,8.50
2018-06-16T07:01:36.539Z,8.10
2018-06-16T07:02:36.531Z,8.10
2018-06-16T07:03:36.529Z,9.20
2018-06-16T07:04:36.514Z,8.50
2018-06-16T07:05:36.506Z,8.40
2018-06-16T07:06:36.500Z,8.20
2018-06-16T07:07:36.497Z,8.20
2018-06-16T07:08:36.484Z,8.70
2018-06-16T07:09:36.475Z,7.70
2018-06-16T07:10:36.511Z,8.10
2018-06-16T07:11:36.461Z,8.00
2018-06-16T07:12:36.454Z,7.20
2018-06-16T07:13:36.446Z,7.40
2018-06-16T07:14:36.439Z,7.50
2018-06-16T07:15:36.433Z,7.20
2018-06-16T07:16:36.426Z,6.70
2018-06-16T07:17:36.418Z,8.70
2018-06-16T07:18:36.410Z,7.70
2018-06-16T07:19:36.409Z,7.40
2018-06-16T07:20:36.405Z,7.10
2018-06-16T07:21:36.393Z,6.40
2018-06-16T07:22:36.385Z,7.10
2018-06-16T07:23:36.448Z,6.50
2018-06-16T07:24:36.377Z,6.70
2018-06-16T07:25:36.369Z,6.40
2018-06-16T07:26:36.363Z,6.30
2018-06-16T07:27:36.358Z,7.70
2018-06-16T07:28:36.352Z,9.70
2018-06-16T07:29:36.353Z,6.60
2018-06-16T07:30:36.349Z,6.80
2018-06-16T07:31:36.334Z,7.20
2018-06-16T07:32:36.430Z,7.40
2018-06-16T07:33:36.325Z,7.30
2018-06-16T07:34:36.320Z,7.50
2018-06-16T07:35:36.314Z,7.50
2018-06-16T07:36:36.309Z,7.80
2018-06-16T07:37:36.305Z,6.80
2018-06-16T07:38:36.296Z,6.80
2018-06-16T07:39:36.294Z,7.50
2018-06-16T07:40:36.289Z,6.90
2018-06-16T07:41:36.282Z,6.90
2018-06-16T07:42:36.284Z,7.80
2018-06-16T07:43:36.279Z,6.90
2018-06-16T07:44:36.267Z,6.90
2018-06-16T07:45:36.259Z,6.30
2018-06-16T07:46:36.251Z,7.20
2018-06-16T07:47:36.247Z,6.50
2018-06-16T07:48:36.242Z,7.20
2018-06-16T07:49:36.242Z,6.80
2018-06-16T07:50:36.229Z,7.10
2018-06-16T07:51:36.223Z,7.10
2018-06-16T07:52:36.217Z,6.60
2018-06-16T07:53:36.210Z,6.80
2018-06-16T07:54:36.204Z,6.80
2018-06-16T07:55:36.197Z,6.70
2018-06-16T07:56:36.191Z,7.10
2018-06-16T07:57:36.184Z,6.80
2018-06-16T07:58:36.178Z,7.10
2018-06-16T07:59:36.172Z,7.30
2018-06-16T08:00:36.166Z,7.20
2018-06-16T08:01:36.161Z,7.20
2018-06-16T08:02:36.169Z,7.00
2018-06-16T08:03:36.158Z,7.10
2018-06-16T08:04:36.141Z,6.90
2018-06-16T08:05:36.140Z,7.20
2018-06-16T08:06:36.125Z,7.20
2018-06-16T08:07:36.120Z,7.10
2018-06-16T08:08:36.116Z,8.00
2018-06-16T08:09:36.115Z,7.70
2018-06-16T08:10:36.099Z,7.10
2018-06-16T08:11:36.096Z,7.30
2018-06-16T08:12:36.099Z,7.10
2018-06-16T08:13:36.080Z,7.40
2018-06-16T08:14:36.074Z,7.10
2018-06-16T08:15:36.068Z,7.80
2018-06-16T08:16:36.061Z,7.80
2018-06-16T08:17:36.053Z,7.90
2018-06-16T08:18:36.055Z,7.10
2018-06-16T08:19:36.044Z,6.90
2018-06-16T08:20:36.038Z,7.50
2018-06-16T08:21:36.032Z,8.20
2018-06-16T08:22:36.025Z,8.40
2018-06-16T08:23:36.013Z,8.60
2018-06-16T08:24:36.082Z,8.50
2018-06-16T08:25:35.999Z,8.10
2018-06-16T08:26:35.993Z,8.30
2018-06-16T08:27:35.989Z,8.40
2018-06-16T08:28:35.985Z,7.50
2018-06-16T08:29:36.074Z,7.40
2018-06-16T08:30:35.965Z,7.60
2018-06-16T08:31:35.960Z,7.90
2018-06-16T08:32:35.954Z,8.80
2018-06-16T08:33:35.954Z,8.60
2018-06-16T08:34:35.940Z,8.70
2018-06-16T08:35:35.932Z,8.20
2018-06-16T08:36:35.933Z,8.10
2018-06-16T08:37:35.920Z,7.60
2018-06-16T08:38:35.915Z,8.50
2018-06-16T08:39:35.905Z,8.10
2018-06-16T08:40:35.905Z,8.30
2018-06-16T08:41:35.898Z,8.70
2018-06-16T08:42:35.895Z,7.80
2018-06-16T08:43:35.888Z,8.20
2018-06-16T08:44:35.874Z,7.40
2018-06-16T08:45:35.922Z,7.40
2018-06-16T08:46:35.863Z,7.60
2018-06-16T08:47:35.854Z,7.40
2018-06-16T08:48:35.872Z,7.10
2018-06-16T08:49:35.845Z,6.70
2018-06-16T08:50:35.839Z,7.30
2018-06-16T08:51:35.827Z,7.40
2018-06-16T08:52:35.837Z,7.40
2018-06-16T08:53:35.814Z,7.30
2018-06-16T08:54:35.812Z,7.90
2018-06-16T08:55:35.957Z,7.10
2018-06-16T08:56:35.801Z,7.40
2018-06-16T08:57:35.788Z,7.50
2018-06-16T08:58:35.790Z,7.20
2018-06-16T08:59:35.786Z,7.70
2018-06-16T09:00:35.768Z,7.30
2018-06-16T09:01:35.784Z,7.00
2018-06-16T09:02:35.753Z,7.60
2018-06-16T09:03:35.757Z,7.90
2018-06-16T09:04:35.740Z,7.00
2018-06-16T09:05:35.734Z,7.60
2018-06-16T09:06:35.785Z,7.60
2018-06-16T09:07:35.720Z,7.50
2018-06-16T09:08:35.717Z,7.40
2018-06-16T09:09:35.725Z,7.10
2018-06-16T09:10:35.709Z,7.60
2018-06-16T09:11:35.712Z,7.50
2018-06-16T09:12:35.690Z,7.40
2018-06-16T09:13:35.695Z,7.30
2018-06-16T09:14:35.673Z,7.00
2018-06-16T09:15:35.675Z,7.70
2018-06-16T09:16:35.663Z,7.20
2018-06-16T09:17:35.656Z,7.00
2018-06-16T09:18:35.657Z,7.30
2018-06-16T09:19:35.651Z,7.00
2018-06-16T09:20:35.640Z,7.10
2018-06-16T09:21:35.628Z,7.40
2018-06-16T09:22:35.630Z,7.80
2018-06-16T09:23:35.624Z,7.40
2018-06-16T09:24:35.618Z,7.10
2018-06-16T09:25:35.604Z,7.20
2018-06-16T09:26:35.609Z,6.80
2018-06-16T09:27:35.593Z,7.80
2018-06-16T09:28:35.595Z,6.90
2018-06-16T09:29:35.576Z,6.60
2018-06-16T09:30:35.574Z,6.90
2018-06-16T09:31:35.575Z,6.50
2018-06-16T09:32:35.561Z,7.40
2018-06-16T09:33:35.554Z,6.50
2018-06-16T09:34:35.554Z,6.90
2018-06-16T09:35:35.593Z,7.20
2018-06-16T09:36:35.545Z,6.90
2018-06-16T09:37:35.532Z,7.30
2018-06-16T09:38:35.523Z,7.50
2018-06-16T09:39:35.523Z,8.10
2018-06-16T09:40:35.514Z,7.20
2018-06-16T09:41:35.503Z,7.50
2018-06-16T09:42:35.555Z,7.80
2018-06-16T09:43:35.508Z,7.60
2018-06-16T09:44:35.487Z,8.40
2018-06-16T09:45:35.496Z,8.80
2018-06-16T09:46:35.475Z,8.00
2018-06-16T09:47:35.468Z,8.70
2018-06-16T09:48:35.479Z,8.80
2018-06-16T09:49:35.466Z,8.00
2018-06-16T09:50:35.450Z,9.10
2018-06-16T09:51:35.457Z,9.00
2018-06-16T09:52:35.444Z,8.90
2018-06-16T09:53:35.432Z,9.10
2018-06-16T09:54:35.433Z,8.80
2018-06-16T09:55:35.424Z,8.70
2018-06-16T09:56:35.523Z,9.10
2018-06-16T09:57:35.411Z,8.90
2018-06-16T09:58:35.401Z,8.90
2018-06-16T09:59:35.394Z,9.30
2018-06-16T10:00:35.390Z,8.30
2018-06-16T10:01:35.383Z,8.80
2018-06-16T10:02:35.379Z,8.80
2018-06-16T10:03:35.380Z,8.60
2018-06-16T10:04:35.366Z,8.30
2018-06-16T10:05:35.363Z,8.40
2018-06-16T10:06:35.355Z,8.50
2018-06-16T10:07:35.349Z,8.40
2018-06-16T10:08:35.349Z,8.10
2018-06-16T10:09:35.340Z,8.30
2018-06-16T10:10:35.338Z,8.00
2018-06-16T10:11:35.330Z,7.80
2018-06-16T10:12:35.326Z,7.40
2018-06-16T10:13:35.341Z,8.60
2018-06-16T10:14:35.319Z,8.50
2018-06-16T10:15:35.313Z,8.70
2018-06-16T10:16:35.308Z,10.00
2018-06-16T10:17:35.310Z,9.70
2018-06-16T10:18:35.305Z,9.50
2018-06-16T10:19:35.294Z,8.90
2018-06-16T10:20:35.297Z,8.60
2018-06-16T10:21:35.293Z,7.30
2018-06-16T10:22:35.301Z,6.90
2018-06-16T10:23:35.281Z,6.70
2018-06-16T10:24:35.279Z,7.00
2018-06-16T10:25:35.321Z,6.90
2018-06-16T10:26:35.268Z,7.10
2018-06-16T10:27:35.276Z,7.00
2018-06-16T10:28:35.270Z,6.80
2018-06-16T10:29:35.257Z,6.30
2018-06-16T10:30:35.255Z,7.30
2018-06-16T10:31:35.251Z,6.80
2018-06-16T10:32:35.247Z,7.90
2018-06-16T10:33:35.243Z,6.60
2018-06-16T10:34:35.240Z,7.50
2018-06-16T10:35:35.244Z,6.50
2018-06-16T10:36:35.235Z,6.50
2018-06-16T10:37:35.228Z,6.20
2018-06-16T10:38:35.227Z,6.40
2018-06-16T10:39:35.232Z,6.60
2018-06-16T10:40:35.226Z,7.20
2018-06-16T10:41:35.215Z,7.00
2018-06-16T10:42:35.211Z,6.80
2018-06-16T10:43:35.214Z,7.30
2018-06-16T10:44:35.204Z,6.60
2018-06-16T10:45:35.209Z,7.10
2018-06-16T10:46:35.195Z,6.70
2018-06-16T10:47:35.202Z,5.90
2018-06-16T10:48:35.188Z,6.70
2018-06-16T10:49:35.181Z,7.00
2018-06-16T10:50:35.179Z,7.50
2018-06-16T10:51:35.172Z,7.30
2018-06-16T10:52:35.170Z,6.70
2018-06-16T10:53:35.164Z,6.30
2018-06-16T10:54:35.162Z,6.40
2018-06-16T10:55:35.171Z,6.00
2018-06-16T10:56:35.303Z,6.20
2018-06-16T10:57:35.148Z,6.50
2018-06-16T10:58:35.151Z,6.60
2018-06-16T10:59:35.140Z,6.30
2018-06-16T11:00:35.143Z,5.70
2018-06-16T11:01:35.137Z,5.50
2018-06-16T11:02:35.127Z,5.40
2018-06-16T11:03:35.131Z,5.70
2018-06-16T11:04:35.117Z,5.80
2018-06-16T11:05:35.111Z,5.60
2018-06-16T11:06:35.111Z,5.50
2018-06-16T11:07:35.107Z,5.20
2018-06-16T11:08:35.101Z,5.30
2018-06-16T11:09:35.103Z,5.50
2018-06-16T11:10:35.095Z,5.20
2018-06-16T11:11:35.100Z,5.10
2018-06-16T11:12:35.080Z,4.70
2018-06-16T11:13:35.077Z,5.10
2018-06-16T11:14:35.071Z,6.30
2018-06-16T11:15:35.068Z,5.70
2018-06-16T11:16:35.066Z,5.80
2018-06-16T11:17:35.058Z,5.40
2018-06-16T11:18:35.053Z,5.60
2018-06-16T11:19:35.063Z,5.50
2018-06-16T11:20:35.082Z,5.40
2018-06-16T11:21:35.037Z,5.50
2018-06-16T11:22:35.033Z,5.90
2018-06-16T11:23:35.046Z,5.70
2018-06-16T11:24:35.024Z,5.10
2018-06-16T11:25:35.033Z,5.10
2018-06-16T11:26:35.021Z,5.40
2018-06-16T11:27:35.009Z,5.50
2018-06-16T11:28:35.003Z,5.30
2018-06-16T11:29:35.006Z,5.10
2018-06-16T11:30:34.993Z,5.20
2018-06-16T11:31:34.987Z,5.30
2018-06-16T11:32:34.983Z,5.40
2018-06-16T11:33:34.975Z,4.90
2018-06-16T11:34:34.983Z,5.30
2018-06-16T11:35:34.975Z,5.20
2018-06-16T11:36:34.963Z,4.90
2018-06-16T11:37:34.965Z,5.90
2018-06-16T11:38:34.959Z,5.10
2018-06-16T11:39:34.945Z,5.70
2018-06-16T11:40:34.942Z,5.20
2018-06-16T11:41:34.935Z,4.70
2018-06-16T11:42:34.940Z,5.00
2018-06-16T11:43:34.926Z,4.60
2018-06-16T11:44:34.922Z,4.70
2018-06-16T11:45:34.917Z,4.20
2018-06-16T11:46:34.913Z,3.80
2018-06-16T11:47:34.908Z,4.70
2018-06-16T11:48:34.900Z,4.20
2018-06-16T11:49:34.896Z,4.40
2018-06-16T11:50:34.891Z,4.10
2018-06-16T11:51:34.894Z,4.30
2018-06-16T11:52:34.884Z,3.60
2018-06-16T11:53:34.875Z,3.60
2018-06-16T11:54:34.870Z,3.60
2018-06-16T11:55:34.865Z,3.80
2018-06-16T11:56:34.861Z,3.90
2018-06-16T11:57:34.861Z,3.80
2018-06-16T11:58:34.851Z,4.60
2018-06-16T11:59:34.844Z,4.20
2018-06-16T12:00:34.840Z,4.00
2018-06-16T12:01:34.837Z,3.60
2018-06-16T12:02:34.833Z,4.20
2018-06-16T12:03:34.822Z,3.70
2018-06-16T12:04:34.827Z,4.00
2018-06-16T12:05:34.815Z,4.50
2018-06-16T12:06:34.806Z,4.20
2018-06-16T12:07:34.802Z,4.10
2018-06-16T12:08:34.810Z,4.50
2018-06-16T12:09:34.846Z,4.30
2018-06-16T12:10:34.795Z,4.80
2018-06-16T12:11:34.779Z,4.30
2018-06-16T12:12:34.783Z,5.00
2018-06-16T12:13:34.764Z,4.70
2018-06-16T12:14:34.771Z,4.90
2018-06-16T12:15:34.764Z,5.30
2018-06-16T12:16:34.749Z,5.10
2018-06-16T12:17:34.742Z,5.90
2018-06-16T12:18:34.737Z,5.00
2018-06-16T12:19:34.741Z,4.90
2018-06-16T12:20:34.732Z,5.20
2018-06-16T12:21:34.719Z,4.80
2018-06-16T12:22:34.728Z,4.70
2018-06-16T12:23:34.719Z,4.50
2018-06-16T12:24:34.704Z,4.50
2018-06-16T12:25:34.705Z,4.60
2018-06-16T12:26:34.696Z,4.40
2018-06-16T12:27:34.692Z,5.10
2018-06-16T12:28:34.676Z,4.20
2018-06-16T12:29:34.674Z,4.50
2018-06-16T12:30:34.668Z,4.60
2018-06-16T12:31:34.667Z,4.80
2018-06-16T12:32:34.653Z,4.90
2018-06-16T12:33:34.651Z,5.00
2018-06-16T12:34:34.637Z,4.10
2018-06-16T12:35:34.632Z,4.30
2018-06-16T12:36:34.626Z,4.50
2018-06-16T12:37:34.640Z,4.80
2018-06-16T12:38:34.612Z,4.30
2018-06-16T12:39:34.606Z,4.90
2018-06-16T12:40:34.606Z,4.10
2018-06-16T12:41:34.594Z,4.40
2018-06-16T12:42:34.592Z,4.40
2018-06-16T12:43:34.582Z,4.60
2018-06-16T12:44:34.609Z,4.70
2018-06-16T12:45:34.567Z,4.40
2018-06-16T12:46:34.718Z,4.60
2018-06-16T12:47:34.553Z,4.70
2018-06-16T12:48:34.546Z,4.50
2018-06-16T12:49:34.542Z,4.60
2018-06-16T12:50:34.538Z,4.90
2018-06-16T12:51:34.530Z,4.90
2018-06-16T12:52:34.525Z,4.90
2018-06-16T12:53:34.512Z,4.50
2018-06-16T12:54:34.509Z,4.80
2018-06-16T12:55:34.507Z,4.50
2018-06-16T12:56:34.552Z,4.70
2018-06-16T12:57:34.516Z,4.70
2018-06-16T12:58:34.480Z,4.80
2018-06-16T12:59:34.486Z,5.60
2018-06-16T13:00:34.468Z,5.30
2018-06-16T13:01:34.464Z,4.50
2018-06-16T13:02:34.464Z,5.30
2018-06-16T13:03:34.448Z,4.50
2018-06-16T13:04:34.448Z,4.80
2018-06-16T13:05:34.441Z,4.80